SBPB/PHB METAR and TAF weather

Enter ICAO airport designator
Station Type Date Time Source
SBPB METAR 2022/08/16 19:00 UTC NOAA

SBPB 161900Z 09013KT CAVOK 30/24 Q1010


Station Type Date Time Source
SBPB Decoded METAR 2022/08/16 19:00 UTC NOAA

Parnaiba Aeroporto , Brazil (SBPB) 02-55S 041-45W
Aug 16, 2022 - 03:00 PM EDT / 2022.08.16 1900 UTC
Wind: from the E (090 degrees) at 15 MPH (13 KT):0
Visibility: greater than 7 mile(s):0
Temperature: 86 F (30 C)
Heat index: 95.0 F (35.0 C):1
Dew Point: 75 F (24 C)
Relative Humidity: 70%
Pressure (altimeter): 29.83 in. Hg (1010 hPa)
ob: SBPB 161900Z 09013KT CAVOK 30/24 Q1010
cycle: 19

Station Type Date Time Source
SBPB TAF 2022/08/16 18:03 UTC NOAA

TAF SBPB 161545Z 1618/1706 09010KT CAVOK TX32/1618Z TN26/1706Z
BECMG 1620/1622 12005KT
RMK PHN

Example: see airport list